Time;durP1;ratioP1;P1;durP2;ratioP2;P2;SDS_P1;SDS_P2;PMS_P1;PMS_P2;Temp;Humidity;BMP_temperature;BMP_pressure;BME280_temperature;BME280_humidity;BME280_pressure;Samples;Min_cycle;Max_cycle;Signal;HPM_P1;HPM_P2
2021/10/22 00:01:36;;;;;;;8.00;0.30;;;6.80;99.90;;;;;;5005332;28;20189;-89
2021/10/22 00:04:02;;;;;;;6.55;0.30;;;6.80;99.90;;;;;;5005246;28;20395;-88
2021/10/22 00:06:28;;;;;;;5.55;0.28;;;6.80;99.90;;;;;;5005312;28;20031;-89
2021/10/22 00:08:53;;;;;;;5.60;0.20;;;6.80;99.90;;;;;;4988933;28;20078;-89
2021/10/22 00:11:23;;;;;;;6.28;0.30;;;6.90;99.90;;;;;;5004644;28;20042;-89
2021/10/22 00:13:49;;;;;;;3.60;0.20;;;6.80;99.90;;;;;;4988613;28;20043;-89
2021/10/22 00:16:15;;;;;;;8.35;0.38;;;6.80;99.90;;;;;;5005230;28;20483;-89
2021/10/22 00:18:41;;;;;;;2.55;0.60;;;6.80;99.90;;;;;;4989093;28;20038;-90
2021/10/22 00:21:07;;;;;;;4.13;0.30;;;6.70;99.90;;;;;;5004980;28;20039;-91
2021/10/22 00:23:32;;;;;;;5.35;0.20;;;6.80;99.90;;;;;;5004764;28;20035;-91
2021/10/22 00:25:58;;;;;;;2.65;0.20;;;6.60;99.90;;;;;;5004906;28;20038;-90
2021/10/22 00:28:24;;;;;;;4.30;0.20;;;6.70;99.90;;;;;;5004877;28;20050;-89
2021/10/22 00:30:49;;;;;;;3.78;0.25;;;6.60;99.90;;;;;;5004671;28;20042;-89
2021/10/22 00:33:15;;;;;;;4.30;0.20;;;6.60;99.90;;;;;;5004649;28;20030;-88
2021/10/22 00:35:42;;;;;;;2.50;0.10;;;6.60;99.90;;;;;;5004748;28;20037;-89
2021/10/22 00:38:07;;;;;;;3.65;0.20;;;6.60;99.90;;;;;;5004809;28;20030;-90
2021/10/22 00:40:33;;;;;;;2.90;0.20;;;6.50;99.90;;;;;;4988533;28;20045;-90
2021/10/22 00:43:00;;;;;;;3.15;0.20;;;6.50;99.90;;;;;;5005115;28;20058;-89
2021/10/22 00:45:25;;;;;;;4.88;0.20;;;6.50;99.90;;;;;;5003638;28;20034;-90
2021/10/22 00:47:51;;;;;;;5.00;0.40;;;6.40;99.90;;;;;;4991757;28;20074;-88
2021/10/22 00:50:17;;;;;;;2.60;0.22;;;6.40;99.90;;;;;;4988055;28;20122;-89
2021/10/22 00:52:46;;;;;;;7.38;0.55;;;6.40;99.90;;;;;;4987907;28;20073;-90
2021/10/22 00:55:12;;;;;;;5.13;0.50;;;6.40;99.90;;;;;;4968819;28;20091;-89
2021/10/22 00:57:40;;;;;;;3.35;0.20;;;6.40;99.90;;;;;;4952528;29;20031;-91
2021/10/22 01:00:07;;;;;;;4.60;0.63;;;6.40;99.90;;;;;;4952404;29;20043;-90
2021/10/22 01:02:36;;;;;;;3.83;0.25;;;6.50;99.90;;;;;;4952367;29;20047;-90
2021/10/22 01:05:06;;;;;;;7.53;0.30;;;6.50;99.90;;;;;;4952606;29;20174;-90
2021/10/22 01:07:33;;;;;;;3.97;0.32;;;6.40;99.90;;;;;;4952546;29;20031;-89
2021/10/22 01:09:59;;;;;;;5.65;0.30;;;6.40;99.90;;;;;;4968182;29;20040;-90
2021/10/22 01:12:25;;;;;;;6.80;0.30;;;6.40;99.90;;;;;;4952208;29;20043;-88
2021/10/22 01:14:51;;;;;;;4.03;0.30;;;6.30;99.90;;;;;;4952179;29;20027;-89
2021/10/22 01:17:32;;;;;;;5.40;0.40;;;6.30;99.90;;;;;;4968063;29;20403;-91
2021/10/22 01:19:57;;;;;;;4.72;0.57;;;6.50;99.90;;;;;;4968276;29;20039;-90
2021/10/22 01:22:23;;;;;;;3.60;0.30;;;6.50;99.90;;;;;;4951912;29;20043;-89
2021/10/22 01:24:49;;;;;;;9.75;0.65;;;6.40;99.90;;;;;;4951959;29;20035;-89
2021/10/22 01:27:15;;;;;;;6.88;0.50;;;6.50;99.90;;;;;;4952156;29;20065;-89
2021/10/22 01:29:40;;;;;;;7.53;0.40;;;6.50;99.90;;;;;;4951963;29;20032;-89
2021/10/22 01:32:06;;;;;;;7.25;0.38;;;6.60;99.90;;;;;;4951874;29;20034;-90
2021/10/22 01:34:32;;;;;;;6.30;0.35;;;6.60;99.90;;;;;;4951776;29;20038;-89
2021/10/22 01:36:58;;;;;;;8.20;0.30;;;6.50;99.90;;;;;;4967881;29;20034;-90
2021/10/22 01:39:24;;;;;;;5.13;0.30;;;6.50;99.90;;;;;;4967571;29;20031;-89
2021/10/22 01:41:49;;;;;;;5.32;0.30;;;6.40;99.90;;;;;;4951676;29;20038;-90
2021/10/22 01:44:22;;;;;;;7.93;0.45;;;6.30;99.90;;;;;;4967888;29;20031;-89
2021/10/22 01:46:48;;;;;;;11.20;0.50;;;6.40;99.90;;;;;;4955330;29;20047;-83
2021/10/22 01:49:13;;;;;;;6.07;0.30;;;6.40;99.90;;;;;;4967706;29;20038;-89
2021/10/22 01:51:40;;;;;;;3.80;0.25;;;6.30;99.90;;;;;;4967763;29;20035;-82
2021/10/22 01:54:05;;;;;;;5.32;0.30;;;6.30;99.90;;;;;;4970331;29;20042;-83
2021/10/22 01:56:31;;;;;;;10.52;0.30;;;6.30;99.90;;;;;;4974431;28;20023;-88
2021/10/22 01:58:57;;;;;;;7.07;0.30;;;6.30;99.90;;;;;;4975060;29;20034;-91
2021/10/22 02:01:23;;;;;;;6.53;0.95;;;6.30;99.90;;;;;;4968668;29;20053;-90
2021/10/22 02:03:48;;;;;;;9.25;0.60;;;6.30;99.90;;;;;;4953191;29;20114;-83
2021/10/22 02:06:14;;;;;;;12.23;0.50;;;6.50;99.90;;;;;;4975703;29;20050;-89
2021/10/22 02:08:40;;;;;;;5.90;0.30;;;6.50;99.90;;;;;;4963244;29;20031;-88
2021/10/22 02:11:05;;;;;;;2.03;0.20;;;6.50;99.90;;;;;;4962979;29;20035;-89
2021/10/22 02:13:31;;;;;;;3.00;0.28;;;6.50;99.90;;;;;;4962896;29;20046;-87
2021/10/22 02:15:57;;;;;;;5.60;0.70;;;6.30;99.90;;;;;;4962833;29;20082;-88
2021/10/22 02:18:23;;;;;;;4.35;0.40;;;6.40;99.90;;;;;;4978869;29;20030;-88
2021/10/22 02:20:48;;;;;;;4.25;0.30;;;6.40;99.90;;;;;;4962512;29;20030;-87
2021/10/22 02:23:14;;;;;;;5.10;1.25;;;6.30;99.90;;;;;;4978729;29;20019;-89
2021/10/22 02:25:39;;;;;;;3.50;0.30;;;6.20;99.90;;;;;;4978801;29;20043;-88
2021/10/22 02:28:06;;;;;;;8.60;0.40;;;6.20;99.90;;;;;;4962647;29;20031;-88
2021/10/22 02:30:32;;;;;;;4.55;0.20;;;6.20;99.90;;;;;;4962762;29;20082;-88
2021/10/22 02:32:58;;;;;;;4.93;0.30;;;6.20;99.90;;;;;;4962791;29;20023;-89
2021/10/22 02:35:24;;;;;;;5.97;0.32;;;6.20;99.90;;;;;;4946866;29;20046;-88
2021/10/22 02:37:49;;;;;;;3.45;0.20;;;6.10;99.90;;;;;;4962688;29;20566;-88
2021/10/22 02:40:16;;;;;;;5.13;0.30;;;6.10;99.90;;;;;;4962278;29;20043;-90
2021/10/22 02:42:43;;;;;;;6.80;0.50;;;6.00;99.90;;;;;;4962480;29;20034;-87
2021/10/22 02:45:09;;;;;;;3.67;0.25;;;6.00;99.90;;;;;;4946744;29;20019;-89
2021/10/22 02:47:35;;;;;;;6.93;0.47;;;6.00;99.90;;;;;;4980296;28;20035;-88
2021/10/22 02:50:00;;;;;;;6.75;0.47;;;5.90;99.90;;;;;;4979433;28;20090;-89
2021/10/22 02:52:26;;;;;;;3.28;0.28;;;6.00;99.90;;;;;;4963488;28;20097;-89
2021/10/22 02:54:52;;;;;;;4.40;0.50;;;5.90;99.90;;;;;;4984549;28;20090;-89
2021/10/22 02:57:17;;;;;;;2.95;0.30;;;5.90;99.90;;;;;;4963447;28;20083;-88
2021/10/22 02:59:43;;;;;;;10.07;0.40;;;6.00;99.90;;;;;;4963474;28;20116;-90
2021/10/22 03:02:11;;;;;;;5.38;0.50;;;5.90;99.90;;;;;;4979468;28;20089;-90
2021/10/22 03:04:37;;;;;;;5.57;0.32;;;6.00;99.90;;;;;;4963429;28;20030;-89
2021/10/22 03:07:03;;;;;;;6.45;0.30;;;6.00;99.90;;;;;;4963439;28;20031;-89
2021/10/22 03:09:29;;;;;;;4.82;0.40;;;6.00;99.90;;;;;;4967337;28;20012;-89
2021/10/22 03:11:54;;;;;;;5.18;0.40;;;5.90;99.90;;;;;;4983004;28;20019;-89
2021/10/22 03:14:20;;;;;;;8.60;0.50;;;6.00;99.90;;;;;;4983166;28;20031;-89
2021/10/22 03:16:47;;;;;;;5.35;0.40;;;6.00;99.90;;;;;;4966987;28;20023;-90
2021/10/22 03:19:12;;;;;;;4.30;0.68;;;5.90;99.90;;;;;;4967274;29;20042;-89
2021/10/22 03:21:40;;;;;;;6.13;0.40;;;5.90;99.90;;;;;;4966919;29;20031;-89
2021/10/22 03:24:05;;;;;;;5.90;0.60;;;5.80;99.90;;;;;;4983272;28;20015;-89
2021/10/22 03:26:31;;;;;;;5.70;0.40;;;5.80;99.90;;;;;;4982885;28;20019;-89
2021/10/22 03:28:57;;;;;;;5.13;0.35;;;5.80;99.90;;;;;;4982935;28;20019;-87
2021/10/22 03:31:22;;;;;;;5.20;0.40;;;5.70;99.90;;;;;;4982708;28;20047;-88
2021/10/22 03:33:48;;;;;;;5.07;0.80;;;5.80;99.90;;;;;;4983331;28;20019;-89
2021/10/22 03:36:14;;;;;;;5.20;0.52;;;5.70;99.90;;;;;;4982806;28;20042;-90
2021/10/22 03:38:40;;;;;;;5.60;0.40;;;5.80;99.90;;;;;;4966781;29;20090;-88
2021/10/22 03:41:07;;;;;;;5.63;0.50;;;5.80;99.90;;;;;;4982258;28;20042;-89
2021/10/22 03:43:34;;;;;;;4.10;0.50;;;5.80;99.90;;;;;;4982585;28;20035;-88
2021/10/22 03:46:00;;;;;;;4.38;0.40;;;5.70;99.90;;;;;;4962682;28;20035;-89
2021/10/22 03:48:26;;;;;;;5.57;0.40;;;5.70;99.90;;;;;;4989404;28;20058;-88
2021/10/22 03:50:51;;;;;;;6.07;0.50;;;5.60;99.90;;;;;;4989187;28;20499;-88
2021/10/22 03:53:17;;;;;;;4.75;0.50;;;5.60;99.90;;;;;;4989231;28;20023;-88
2021/10/22 03:55:43;;;;;;;6.10;0.70;;;5.60;99.90;;;;;;5001280;28;20026;-88
2021/10/22 03:58:08;;;;;;;6.35;0.60;;;5.60;99.90;;;;;;4989476;28;20038;-88
2021/10/22 04:00:34;;;;;;;6.95;0.95;;;5.60;99.90;;;;;;4989236;28;20070;-89
2021/10/22 04:03:01;;;;;;;5.55;1.10;;;5.60;99.90;;;;;;4989335;28;20027;-90
2021/10/22 04:05:26;;;;;;;3.70;0.50;;;5.50;99.90;;;;;;5005559;28;20390;-90
2021/10/22 04:07:52;;;;;;;5.18;0.60;;;5.60;99.90;;;;;;5006457;28;20026;-90
2021/10/22 04:10:18;;;;;;;8.13;0.60;;;5.60;99.90;;;;;;4990112;28;20037;-88
2021/10/22 04:12:44;;;;;;;5.03;0.55;;;5.70;99.90;;;;;;4988844;28;20050;-89
2021/10/22 04:15:09;;;;;;;7.72;0.82;;;5.60;99.90;;;;;;4989255;28;20045;-89
2021/10/22 04:17:37;;;;;;;7.22;1.08;;;5.50;99.90;;;;;;5005271;28;20411;-90
2021/10/22 04:20:03;;;;;;;7.85;0.60;;;5.60;99.90;;;;;;4988881;28;20045;-90
2021/10/22 04:22:28;;;;;;;8.52;0.90;;;5.70;99.90;;;;;;4989103;28;20034;-88
2021/10/22 04:24:54;;;;;;;6.32;0.63;;;5.70;99.90;;;;;;4988812;28;20089;-89
2021/10/22 04:27:20;;;;;;;8.07;0.70;;;5.80;99.90;;;;;;4988772;28;20046;-87
2021/10/22 04:29:45;;;;;;;9.02;1.45;;;5.90;99.90;;;;;;4989865;28;20057;-90
2021/10/22 04:32:11;;;;;;;9.90;0.80;;;6.00;99.90;;;;;;4988346;28;20042;-90
2021/10/22 04:34:37;;;;;;;12.38;1.33;;;6.00;99.90;;;;;;4988453;28;20031;-91
2021/10/22 04:42:46;;;;;;;8.52;1.00;;;6.00;99.90;;;;;;4988344;28;20122;-89
2021/10/22 04:45:12;;;;;;;7.28;0.85;;;6.00;99.90;;;;;;4988562;28;20034;-89
2021/10/22 04:47:39;;;;;;;11.80;1.65;;;6.00;99.90;;;;;;4984605;28;20278;-88
2021/10/22 04:50:06;;;;;;;8.45;1.33;;;6.20;99.90;;;;;;4968781;29;20035;-89
2021/10/22 04:52:32;;;;;;;7.50;1.25;;;6.20;99.90;;;;;;4968751;29;20035;-90
2021/10/22 04:54:58;;;;;;;11.95;0.80;;;6.20;99.90;;;;;;4981267;28;20039;-89
2021/10/22 04:57:24;;;;;;;8.60;0.60;;;6.10;99.90;;;;;;4987698;28;20038;-89
2021/10/22 04:59:49;;;;;;;7.68;0.82;;;6.20;99.90;;;;;;5004115;28;20042;-87
2021/10/22 05:02:15;;;;;;;10.20;0.88;;;6.20;99.90;;;;;;5004001;28;20045;-90
2021/10/22 05:04:40;;;;;;;10.13;1.05;;;6.30;99.90;;;;;;4971606;28;20047;-89
2021/10/22 05:07:06;;;;;;;5.53;0.70;;;6.20;99.90;;;;;;4988802;28;20040;-87
2021/10/22 05:09:32;;;;;;;5.88;0.75;;;6.20;99.90;;;;;;4987628;28;20023;-90
2021/10/22 05:11:57;;;;;;;12.45;0.63;;;6.20;99.90;;;;;;5003686;28;20518;-88
2021/10/22 05:14:23;;;;;;;8.02;0.57;;;6.30;99.90;;;;;;5003682;28;20030;-89
2021/10/22 05:19:50;;;;;;;5.55;0.80;;;6.40;99.90;;;;;;4988069;28;20126;-88
2021/10/22 05:22:16;;;;;;;4.25;0.85;;;6.30;99.90;;;;;;5003598;28;20047;-89
2021/10/22 05:24:41;;;;;;;3.85;0.60;;;6.30;99.90;;;;;;5003411;28;20054;-89
2021/10/22 05:27:10;;;;;;;13.75;0.70;;;6.30;99.90;;;;;;5004147;28;20027;-88
2021/10/22 05:29:36;;;;;;;13.25;1.33;;;6.40;99.90;;;;;;5003171;28;20095;-89
2021/10/22 05:32:02;;;;;;;8.35;0.70;;;6.50;99.90;;;;;;4986723;28;20042;-88
2021/10/22 05:34:28;;;;;;;8.82;1.95;;;6.60;99.90;;;;;;5003350;28;20459;-88
2021/10/22 05:36:54;;;;;;;15.35;1.27;;;6.60;99.90;;;;;;5003369;28;20058;-89
2021/10/22 05:39:20;;;;;;;8.73;0.88;;;6.60;99.90;;;;;;4995244;28;20031;-88
2021/10/22 05:41:50;;;;;;;9.55;0.88;;;6.60;99.90;;;;;;5002866;28;20042;-89
2021/10/22 05:44:18;;;;;;;11.10;1.02;;;6.60;99.90;;;;;;5003145;28;20027;-91
2021/10/22 05:46:48;;;;;;;5.70;0.63;;;6.60;99.90;;;;;;5000139;28;20364;-91
2021/10/22 05:49:14;;;;;;;11.15;1.95;;;6.60;99.90;;;;;;4985711;28;20039;-92
2021/10/22 05:51:40;;;;;;;9.73;0.80;;;6.50;99.90;;;;;;4970540;28;20034;-91
2021/10/22 05:54:06;;;;;;;8.30;1.20;;;6.50;99.90;;;;;;4987763;28;20027;-93
2021/10/22 05:56:31;;;;;;;8.07;1.17;;;6.40;99.90;;;;;;4987068;28;20054;-91
2021/10/22 05:58:57;;;;;;;11.38;1.00;;;6.30;99.90;;;;;;4986991;28;20038;-92
2021/10/22 06:01:23;;;;;;;9.73;1.02;;;6.40;99.90;;;;;;4986999;28;20049;-93
2021/10/22 06:03:49;;;;;;;14.55;1.77;;;6.40;99.90;;;;;;4970845;28;20107;-90
2021/10/22 06:06:16;;;;;;;9.95;1.00;;;6.40;99.90;;;;;;4986573;28;20041;-91
2021/10/22 06:08:42;;;;;;;12.43;1.02;;;6.50;99.90;;;;;;4970439;28;20038;-93
2021/10/22 06:11:11;;;;;;;6.95;0.70;;;6.40;99.90;;;;;;4986376;28;20043;-93
2021/10/22 06:13:38;;;;;;;6.32;0.80;;;6.50;99.90;;;;;;4954592;28;20545;-93
2021/10/22 06:16:04;;;;;;;9.85;1.27;;;6.40;99.90;;;;;;4970495;28;20035;-91
2021/10/22 06:18:31;;;;;;;11.13;0.75;;;6.50;99.90;;;;;;4970269;28;20035;-91
2021/10/22 06:21:09;;;;;;;10.38;1.50;;;6.60;99.90;;;;;;4986295;28;20054;-92
2021/10/22 06:26:42;;;;;;;10.38;0.80;;;6.60;99.90;;;;;;4966326;28;20034;-92
2021/10/22 06:29:13;;;;;;;9.43;0.80;;;6.70;99.90;;;;;;4966282;29;20108;-93
2021/10/22 06:31:41;;;;;;;8.50;1.45;;;6.80;99.90;;;;;;4966234;29;20082;-90
2021/10/22 06:34:08;;;;;;;14.40;1.42;;;6.70;99.90;;;;;;4949850;29;20058;-91
2021/10/22 06:36:33;;;;;;;10.88;1.23;;;6.80;99.90;;;;;;4965405;29;20062;-91
2021/10/22 06:39:00;;;;;;;13.70;1.45;;;6.70;99.90;;;;;;4965276;29;20066;-91
2021/10/22 06:41:26;;;;;;;12.38;1.00;;;6.90;99.90;;;;;;4964659;28;20035;-92
2021/10/22 06:43:54;;;;;;;10.73;1.23;;;6.80;99.90;;;;;;4948651;29;20035;-91
2021/10/22 06:46:20;;;;;;;10.70;1.33;;;6.80;99.90;;;;;;4949104;29;20063;-91
2021/10/22 06:48:47;;;;;;;13.35;1.30;;;6.80;99.90;;;;;;4981248;28;20039;-90
2021/10/22 06:51:15;;;;;;;7.80;1.20;;;6.80;99.90;;;;;;4965138;29;20047;-92
2021/10/22 06:53:40;;;;;;;7.35;0.90;;;6.70;99.90;;;;;;4949032;29;20059;-94
2021/10/22 06:56:07;;;;;;;7.43;1.05;;;6.70;99.90;;;;;;4982336;28;20419;-93
2021/10/22 06:58:33;;;;;;;12.07;1.33;;;6.70;99.90;;;;;;5001325;28;20062;-93
2021/10/22 07:00:59;;;;;;;13.40;1.10;;;6.70;99.90;;;;;;4985107;28;20034;-93
2021/10/22 07:03:27;;;;;;;5.78;0.88;;;6.70;99.90;;;;;;4985305;28;20034;-93
2021/10/22 07:08:23;;;;;;;7.43;1.27;;;6.80;99.90;;;;;;4985139;28;20059;-90
2021/10/22 07:10:49;;;;;;;14.05;1.30;;;6.80;99.90;;;;;;4984896;28;20066;-91
2021/10/22 07:13:18;;;;;;;7.95;1.23;;;6.90;99.90;;;;;;4984802;28;20034;-90
2021/10/22 07:15:44;;;;;;;10.65;1.17;;;6.90;99.90;;;;;;4985112;28;20039;-93
2021/10/22 07:18:13;;;;;;;11.23;1.52;;;6.90;99.90;;;;;;4967838;28;20128;-90
2021/10/22 07:20:39;;;;;;;5.45;0.93;;;6.90;99.90;;;;;;4981691;28;20107;-91
2021/10/22 07:23:07;;;;;;;7.97;0.82;;;7.00;99.90;;;;;;4983101;28;20038;-91
2021/10/22 07:25:36;;;;;;;6.55;0.73;;;7.00;99.90;;;;;;4981545;28;20031;-89
2021/10/22 07:30:54;;;;;;;15.50;1.48;;;7.10;99.90;;;;;;4980618;28;20039;-91
2021/10/22 07:33:21;;;;;;;9.82;1.23;;;7.10;99.90;;;;;;4965671;28;20376;-91
2021/10/22 07:35:47;;;;;;;6.70;1.17;;;7.30;99.90;;;;;;4981689;28;20041;-90
2021/10/22 07:38:13;;;;;;;8.25;1.00;;;7.30;99.90;;;;;;4984213;28;20051;-90
2021/10/22 07:40:40;;;;;;;9.93;0.80;;;7.40;99.90;;;;;;4965490;29;20043;-90
2021/10/22 07:43:07;;;;;;;7.55;0.70;;;7.40;99.90;;;;;;4983137;28;20044;-89
2021/10/22 07:45:34;;;;;;;7.88;0.90;;;7.50;99.90;;;;;;4984621;28;20407;-89
2021/10/22 07:48:00;;;;;;;8.30;0.68;;;7.70;99.90;;;;;;4982587;28;20598;-91
2021/10/22 07:50:44;;;;;;;6.88;1.05;;;7.80;99.90;;;;;;4981818;28;20035;-92
2021/10/22 07:53:10;;;;;;;9.93;1.27;;;8.00;99.90;;;;;;4974966;28;20038;-93
2021/10/22 07:55:39;;;;;;;9.05;1.00;;;8.00;99.90;;;;;;4988085;28;20043;-91
2021/10/22 07:58:04;;;;;;;7.53;0.77;;;8.00;99.90;;;;;;4988338;28;20061;-93
2021/10/22 08:00:30;;;;;;;10.10;1.23;;;8.00;99.90;;;;;;4988180;28;20043;-91
2021/10/22 08:02:56;;;;;;;8.50;0.93;;;8.00;99.90;;;;;;4972299;28;20026;-90
2021/10/22 08:05:22;;;;;;;13.88;1.30;;;8.10;99.90;;;;;;4988580;28;20038;-91
2021/10/22 08:07:48;;;;;;;5.82;0.75;;;8.20;99.90;;;;;;4988132;28;20466;-93
2021/10/22 08:10:14;;;;;;;8.30;0.98;;;8.20;99.90;;;;;;4987565;28;20031;-91
2021/10/22 08:12:40;;;;;;;9.60;0.77;;;8.30;99.90;;;;;;4988121;28;20031;-91
2021/10/22 08:15:07;;;;;;;11.88;1.25;;;8.40;99.90;;;;;;4987765;28;20098;-91
2021/10/22 08:17:32;;;;;;;6.68;0.60;;;8.40;99.90;;;;;;4987865;28;20034;-89
2021/10/22 08:20:33;;;;;;;7.40;0.63;;;8.60;99.90;;;;;;4987970;28;20035;-89
2021/10/22 08:22:52;;;;;;;7.68;0.70;;;8.80;99.90;;;;;;4986801;28;20043;-89
2021/10/22 08:25:20;;;;;;;10.63;0.60;;;9.00;99.90;;;;;;4987894;28;20027;-90
2021/10/22 08:27:48;;;;;;;9.10;0.80;;;9.00;99.90;;;;;;4987816;28;20039;-89
2021/10/22 08:30:20;;;;;;;10.55;0.70;;;8.90;99.90;;;;;;4988405;28;20102;-91
2021/10/22 08:32:50;;;;;;;10.25;0.85;;;8.80;99.90;;;;;;4987942;28;20027;-89
2021/10/22 08:35:17;;;;;;;10.82;0.75;;;8.70;99.90;;;;;;4987866;28;20130;-89
2021/10/22 08:37:43;;;;;;;5.93;1.20;;;8.70;99.90;;;;;;4987918;28;20098;-90
2021/10/22 08:40:11;;;;;;;10.02;1.05;;;8.60;99.90;;;;;;4987427;28;20137;-90
2021/10/22 08:42:37;;;;;;;9.68;1.00;;;8.60;99.90;;;;;;4987665;28;20102;-90
2021/10/22 08:48:52;;;;;;;5.95;0.60;;;8.90;99.90;;;;;;4973328;28;20385;-89
2021/10/22 08:51:20;;;;;;;9.98;1.00;;;8.90;99.90;;;;;;4966794;29;20311;-90
2021/10/22 08:53:48;;;;;;;9.57;1.30;;;9.20;99.90;;;;;;4950758;29;20070;-90
2021/10/22 08:56:14;;;;;;;9.77;0.70;;;9.40;99.90;;;;;;4935184;29;20032;-90
2021/10/22 08:58:41;;;;;;;8.98;0.70;;;9.70;99.90;;;;;;4950770;29;20332;-89
2021/10/22 09:01:07;;;;;;;6.05;1.17;;;9.70;99.90;;;;;;4966590;29;20074;-90
2021/10/22 09:03:37;;;;;;;8.00;0.73;;;9.70;99.90;;;;;;4966895;29;20064;-89
2021/10/22 09:06:16;;;;;;;11.65;1.05;;;9.70;99.90;;;;;;4949878;29;20051;-89
2021/10/22 09:08:46;;;;;;;14.60;0.90;;;9.50;99.90;;;;;;4966952;29;20027;-89
2021/10/22 09:11:27;;;;;;;8.40;0.60;;;9.30;99.90;;;;;;4950366;29;20069;-89
2021/10/22 09:14:14;;;;;;;9.48;0.88;;;9.30;99.90;;;;;;4950550;29;20043;-89
2021/10/22 09:16:41;;;;;;;9.25;1.13;;;9.40;99.90;;;;;;4966535;29;20069;-88
2021/10/22 09:19:06;;;;;;;8.68;0.60;;;9.40;99.90;;;;;;4966673;29;20051;-90
2021/10/22 09:21:32;;;;;;;10.63;1.77;;;9.50;99.90;;;;;;4966154;29;20043;-88
2021/10/22 09:24:20;;;;;;;9.95;1.63;;;9.90;99.90;;;;;;4964496;29;20046;-89
2021/10/22 09:26:56;;;;;;;5.75;0.60;;;10.10;99.90;;;;;;4964072;29;20032;-88
2021/10/22 09:29:27;;;;;;;7.95;0.70;;;10.20;99.90;;;;;;4948227;29;20216;-89
2021/10/22 09:31:56;;;;;;;6.80;0.60;;;10.00;99.90;;;;;;4963978;29;20027;-88
2021/10/22 09:34:33;;;;;;;9.88;0.60;;;10.40;99.90;;;;;;4964185;29;20102;-92
2021/10/22 09:37:01;;;;;;;8.95;1.67;;;10.50;99.90;;;;;;4973788;28;20031;-89
2021/10/22 09:39:33;;;;;;;5.53;0.50;;;10.30;99.90;;;;;;4951089;29;20035;-90
2021/10/22 09:42:00;;;;;;;5.28;0.50;;;10.20;99.90;;;;;;4950893;29;20131;-89
2021/10/22 09:44:28;;;;;;;10.15;0.88;;;10.20;99.90;;;;;;4967265;29;20478;-88
2021/10/22 09:47:05;;;;;;;6.78;0.60;;;10.20;99.90;;;;;;4951114;29;20042;-87
2021/10/22 09:49:36;;;;;;;7.97;0.60;;;10.20;99.90;;;;;;4967473;28;20097;-88
2021/10/22 09:52:03;;;;;;;;;;;10.20;99.90;;;;;;4986454;28;20031;-89
2021/10/22 09:54:32;;;;;;;7.43;0.70;;;10.10;99.90;;;;;;4982868;28;19933;-88
2021/10/22 09:57:07;;;;;;;9.57;0.90;;;10.00;99.90;;;;;;4983084;28;20055;-88
2021/10/22 09:59:37;;;;;;;8.43;0.50;;;9.90;99.90;;;;;;4983697;28;20031;-87
2021/10/22 10:02:07;;;;;;;6.72;0.90;;;9.90;99.90;;;;;;4984118;28;20047;-88
2021/10/22 10:04:33;;;;;;;5.30;0.55;;;9.90;99.90;;;;;;4968300;29;20036;-87
2021/10/22 10:07:00;;;;;;;9.90;0.50;;;9.90;99.90;;;;;;4982428;28;20148;-88
2021/10/22 10:09:27;;;;;;;6.32;0.50;;;10.00;99.90;;;;;;4981662;28;20078;-90
2021/10/22 10:11:55;;;;;;;12.32;0.63;;;9.90;99.90;;;;;;4967638;29;20027;-88
2021/10/22 10:14:25;;;;;;;11.32;0.65;;;9.90;99.90;;;;;;4966394;29;20039;-89
2021/10/22 10:16:51;;;;;;;6.75;0.50;;;9.90;99.90;;;;;;4982724;28;20035;-89
2021/10/22 10:19:36;;;;;;;7.07;0.68;;;9.90;99.90;;;;;;4982716;28;20047;-91
2021/10/22 10:22:09;;;;;;;7.18;0.98;;;9.80;99.90;;;;;;4966621;29;20110;-93
2021/10/22 10:24:38;;;;;;;12.55;0.70;;;9.70;99.90;;;;;;4982363;28;20118;-91
2021/10/22 10:27:15;;;;;;;7.17;0.47;;;9.70;99.90;;;;;;4982593;28;20034;-90
2021/10/22 10:29:46;;;;;;;6.70;0.57;;;9.80;99.90;;;;;;4982678;28;20039;-91
2021/10/22 10:32:19;;;;;;;8.30;0.40;;;9.80;99.90;;;;;;4966638;29;20039;-92
2021/10/22 10:34:49;;;;;;;8.65;0.55;;;9.80;99.90;;;;;;4982434;28;20444;-91
2021/10/22 10:37:36;;;;;;;;;;;9.70;99.90;;;;;;4982982;28;20031;-92
2021/10/22 10:40:03;;;;;;;6.53;0.57;;;9.60;99.90;;;;;;4982418;28;19914;-92
2021/10/22 10:42:42;;;;;;;7.70;0.50;;;9.60;99.90;;;;;;4966381;29;20031;-92
2021/10/22 10:45:26;;;;;;;4.57;0.40;;;9.50;99.90;;;;;;4966445;29;20046;-92
2021/10/22 10:48:07;;;;;;;7.97;0.50;;;9.40;99.90;;;;;;4965955;28;20042;-90
2021/10/22 10:50:48;;;;;;;9.23;0.50;;;9.30;99.90;;;;;;4966122;29;20027;-90
2021/10/22 10:53:32;;;;;;;9.43;1.10;;;9.30;99.90;;;;;;4949874;29;20055;-91
2021/10/22 10:56:00;;;;;;;4.63;0.60;;;9.40;99.90;;;;;;4994881;28;20027;-91
2021/10/22 10:58:26;;;;;;;7.30;0.60;;;9.40;99.90;;;;;;5001422;28;20089;-94
2021/10/22 11:00:58;;;;;;;7.80;0.50;;;9.40;99.90;;;;;;5001243;28;20475;-90
2021/10/22 11:03:26;;;;;;;10.30;0.40;;;9.40;99.90;;;;;;4985494;28;20091;-89
2021/10/22 11:05:53;;;;;;;7.05;0.50;;;9.50;99.90;;;;;;4985348;28;20031;-90
2021/10/22 11:08:32;;;;;;;6.95;0.77;;;9.40;99.90;;;;;;5001590;28;20034;-91
2021/10/22 11:11:20;;;;;;;4.43;0.40;;;9.60;99.90;;;;;;4985028;28;20259;-91
2021/10/22 11:14:01;;;;;;;12.15;0.50;;;9.80;99.90;;;;;;4984984;28;20030;-92
2021/10/22 11:16:37;;;;;;;7.20;0.77;;;9.70;99.90;;;;;;5001101;28;20035;-90
2021/10/22 11:19:08;;;;;;;7.97;1.13;;;9.90;99.90;;;;;;4985125;28;20094;-90
2021/10/22 11:21:39;;;;;;;11.10;0.68;;;10.00;99.90;;;;;;4985023;28;20039;-91
2021/10/22 11:24:17;;;;;;;6.35;0.50;;;10.00;99.90;;;;;;4984965;28;20479;-89
2021/10/22 11:26:56;;;;;;;9.70;0.77;;;10.20;99.90;;;;;;4985235;28;20105;-92
2021/10/22 11:29:22;;;;;;;12.25;0.70;;;10.20;99.90;;;;;;4987401;28;20053;-91
2021/10/22 11:31:53;;;;;;;9.30;0.60;;;10.20;99.90;;;;;;5005180;28;20102;-91
2021/10/22 11:34:21;;;;;;;8.43;0.60;;;10.20;99.90;;;;;;4988828;28;20558;-91
2021/10/22 11:37:05;;;;;;;8.77;0.65;;;10.20;99.90;;;;;;5005040;28;20073;-92
2021/10/22 11:39:39;;;;;;;5.75;0.45;;;10.20;99.90;;;;;;4988686;28;20423;-91
2021/10/22 11:42:09;;;;;;;8.73;2.15;;;10.30;99.90;;;;;;5004809;28;20089;-92
2021/10/22 11:44:40;;;;;;;5.63;0.88;;;10.60;99.90;;;;;;5004840;28;20031;-89
2021/10/22 11:47:09;;;;;;;10.55;0.93;;;10.90;99.90;;;;;;4985340;28;20467;-90
2021/10/22 11:49:36;;;;;;;9.07;0.40;;;11.00;99.90;;;;;;4969456;29;20086;-89
2021/10/22 11:52:07;;;;;;;7.00;0.40;;;11.20;99.90;;;;;;4953285;29;20034;-87
2021/10/22 11:54:37;;;;;;;9.30;0.60;;;11.30;99.90;;;;;;4960226;28;20035;-89
2021/10/22 11:57:07;;;;;;;10.38;0.52;;;11.30;99.90;;;;;;4988936;28;20062;-90
2021/10/22 11:59:33;;;;;;;9.05;0.40;;;11.30;99.90;;;;;;4988475;28;20031;-90
2021/10/22 12:02:07;;;;;;;9.50;0.40;;;11.40;99.90;;;;;;4972264;28;20038;-90
2021/10/22 12:04:33;;;;;;;7.05;1.50;;;11.40;99.90;;;;;;4988557;28;20102;-89
2021/10/22 12:07:05;;;;;;;7.47;0.47;;;11.50;99.90;;;;;;4972643;28;20031;-90
2021/10/22 12:09:37;;;;;;;10.88;0.40;;;11.40;99.90;;;;;;4988281;28;20039;-90
2021/10/22 12:12:16;;;;;;;11.05;0.75;;;11.40;99.90;;;;;;4988290;28;20034;-89
2021/10/22 12:14:47;;;;;;;8.05;0.50;;;11.30;99.90;;;;;;4972099;28;20035;-89
2021/10/22 12:17:16;;;;;;;12.75;0.60;;;11.40;99.90;;;;;;4988370;28;20046;-88
2021/10/22 12:19:43;;;;;;;5.30;0.30;;;11.40;99.90;;;;;;4975803;28;20074;-90
2021/10/22 12:22:10;;;;;;;5.15;0.50;;;11.40;99.90;;;;;;4986884;28;20137;-89
2021/10/22 12:24:42;;;;;;;6.68;0.30;;;11.50;99.90;;;;;;4987516;28;20027;-89
2021/10/22 12:27:10;;;;;;;4.00;0.30;;;11.50;99.90;;;;;;4987732;28;20035;-89
2021/10/22 12:29:57;;;;;;;5.28;0.30;;;11.50;99.90;;;;;;4971625;28;20027;-89
2021/10/22 12:32:31;;;;;;;7.70;0.30;;;11.50;99.90;;;;;;4987923;28;20031;-91
2021/10/22 12:34:57;;;;;;;9.20;0.40;;;11.40;99.90;;;;;;4971542;28;20031;-91
2021/10/22 12:38:03;;;;;;;6.93;0.30;;;11.50;99.90;;;;;;4987674;28;20031;-89
2021/10/22 12:40:38;;;;;;;8.98;0.40;;;11.50;99.90;;;;;;4967186;28;20050;-89
2021/10/22 12:43:20;;;;;;;4.50;0.30;;;11.50;99.90;;;;;;4987533;28;20049;-91
2021/10/22 12:45:51;;;;;;;11.27;0.52;;;11.60;99.90;;;;;;4971633;28;20065;-90
2021/10/22 12:48:20;;;;;;;7.13;0.35;;;11.60;99.90;;;;;;4987693;28;20057;-92
2021/10/22 12:50:46;;;;;;;9.95;1.10;;;11.60;99.90;;;;;;4987420;28;20031;-91
2021/10/22 12:53:15;;;;;;;8.90;0.50;;;11.50;99.90;;;;;;4987547;28;20113;-90
2021/10/22 12:55:45;;;;;;;5.00;0.20;;;11.40;99.90;;;;;;4995908;28;20039;-90
2021/10/22 12:58:22;;;;;;;9.18;0.40;;;11.40;99.90;;;;;;4986545;28;20039;-89
2021/10/22 13:01:10;;;;;;;8.13;0.82;;;11.30;99.90;;;;;;4986868;28;20047;-91
2021/10/22 13:03:37;;;;;;;7.40;0.43;;;11.30;99.90;;;;;;4987412;28;20086;-88
2021/10/22 13:06:41;;;;;;;8.05;0.50;;;11.20;99.90;;;;;;4987243;28;20034;-90
2021/10/22 13:09:31;;;;;;;6.57;0.45;;;11.10;99.90;;;;;;4971141;28;20098;-89
2021/10/22 13:22:54;;;;;;;10.00;0.47;;;10.70;99.90;;;;;;4987524;28;20047;-91
2021/10/22 13:25:20;;;;;;;7.63;0.60;;;10.60;99.90;;;;;;4987382;28;20031;-90
2021/10/22 13:27:46;;;;;;;7.40;0.50;;;10.40;99.90;;;;;;4987059;28;20031;-89
2021/10/22 13:30:28;;;;;;;5.15;0.52;;;10.30;99.90;;;;;;4971022;28;20038;-90
2021/10/22 13:32:55;;;;;;;12.18;0.60;;;10.40;99.90;;;;;;4987246;28;20046;-91